KAUW/AUW METAR and TAF weather

Enter ICAO airport designator
Station Type Date Time Source
KAUW METAR 2019/04/18 10:54 UTC NOAA

KAUW 181054Z AUTO 33004KT 5SM BR BKN006 OVC010 03/03 A2954 RMK AO2 CIG 004V009 SLP018 T00330028


Station Type Date Time Source
KAUW Decoded METAR 2019/04/18 10:54 UTC NOAA

WAUSAU DOWNTOWN AIRPORT, WI, United States (KAUW) 44-56N 089-37W 362M
Apr 18, 2019 - 06:54 AM EDT / 2019.04.18 1054 UTC
Wind: from the NNW (330 degrees) at 5 MPH (4 KT):0
Visibility: 5 mile(s):0
Sky conditions: overcast
Weather: mist
Temperature: 37.9 F (3.3 C)
Dew Point: 37.0 F (2.8 C)
Relative Humidity: 96%
Pressure (altimeter): 29.54 in. Hg (1000 hPa)
ob: KAUW 181054Z AUTO 33004KT 5SM BR BKN006 OVC010 03/03 A2954 RMK AO2 CIG 004V009 SLP018 T00330028
cycle: 11

Station Type Date Time Source
KAUW TAF 2019/04/18 10:58 UTC NOAA

TAF
AMD KAUW 180956Z 1810/1906 35006KT 3SM -DZ BR OVC005
FM181400 34011G18KT 6SM BR OVC006
FM181600 34013G22KT P6SM -SHRA OVC012
FM182200 35012G20KT P6SM BKN022
FM190400 36008KT P6SM SCT030

Example: see airport list